6MA9 weather

Public forecast

Using degrees Fahrenheit for public forecast. Weather courtesy of forecast.io.

Closest aviation weather report (METAR) to Cuttyhunk Harbor Seaplane Base

Closest report is Martha's Vineyard Airport, 14.2 nm (26.3 km) E. Retrieved 2020/08/09 13:53 UTC (47 minutes ago):

KMVY 091353Z 27008KT 10SM CLR 26/21 A3013 RMK AO2 SLP202 T02610206

Closest aviation forecast (TAF) to Cuttyhunk Harbor Seaplane Base

Closest forecast is Cape Cod Coast Guard Air Station, 23.1 nm (42.7 km) NE. Retrieved 2020/08/09 12:22 UTC (2 hours ago):

TAF KFMH 091120Z 0912/1012 25005KT P6SM BKN250 FM091800 21009KT P6SM FEW250 FM100300 23007KT P6SM BKN080 FM100600 23007KT 5SM BR BKN050 FM101000 23006KT 3SM BR BKN070